Time;durP1;ratioP1;P1;durP2;ratioP2;P2;SDS_P1;SDS_P2;PMS_P1;PMS_P2;Temp;Humidity;BMP_temperature;BMP_pressure;BME280_temperature;BME280_humidity;BME280_pressure;Samples;Min_cycle;Max_cycle;Signal;HPM_P1;HPM_P2
2022/05/20 00:00:39;;;;;;;6.18;5.90;;;;;;;10.90;68.45;101465.94;5032535;28;20025;-61
2022/05/20 00:03:06;;;;;;;6.05;5.82;;;;;;;10.89;68.33;101461.59;5032482;28;20017;-62
2022/05/20 00:05:31;;;;;;;5.90;5.70;;;;;;;10.88;68.25;101463.44;5032541;28;20037;-61
2022/05/20 00:07:57;;;;;;;6.18;5.90;;;;;;;10.81;68.80;101458.88;5032605;28;20469;-64
2022/05/20 00:10:24;;;;;;;6.20;5.90;;;;;;;10.75;68.97;101457.66;5032908;28;20021;-61
2022/05/20 00:12:50;;;;;;;5.80;5.60;;;;;;;10.79;68.70;101467.81;5032049;28;20374;-62
2022/05/20 00:15:18;;;;;;;6.00;5.75;;;;;;;10.77;69.24;101466.31;5032271;28;20471;-62
2022/05/20 00:17:44;;;;;;;5.90;5.70;;;;;;;10.69;70.28;101463.59;5020003;28;20026;-61
2022/05/20 00:20:12;;;;;;;6.10;5.90;;;;;;;10.74;70.33;101464.81;5038189;28;20090;-62
2022/05/20 00:22:38;;;;;;;6.25;5.95;;;;;;;10.70;70.48;101468.72;5032102;28;20373;-62
2022/05/20 00:27:49;;;;;;;6.20;5.90;;;;;;;10.70;69.33;101475.88;5020903;28;20079;-61
2022/05/20 00:30:15;;;;;;;5.90;5.70;;;;;;;10.71;68.84;101473.06;5032204;28;20455;-61
2022/05/20 00:32:41;;;;;;;5.90;5.70;;;;;;;10.74;68.61;101463.97;5028997;28;20030;-61
2022/05/20 00:35:08;;;;;;;6.05;5.85;;;;;;;10.76;67.83;101473.44;5021665;28;20113;-62
2022/05/20 00:37:33;;;;;;;6.07;5.88;;;;;;;10.77;67.92;101464.47;5016148;28;20054;-62
2022/05/20 00:39:59;;;;;;;5.82;5.63;;;;;;;10.83;67.57;101467.53;5020970;28;20064;-62
2022/05/20 00:42:25;;;;;;;5.75;5.55;;;;;;;10.75;68.85;101453.19;5022488;28;20036;-61
2022/05/20 00:44:51;;;;;;;6.13;5.90;;;;;;;10.74;69.38;101453.34;5031740;28;20050;-61
2022/05/20 00:47:16;;;;;;;5.75;5.55;;;;;;;10.67;70.04;101454.94;5031633;28;20032;-63
2022/05/20 00:49:50;;;;;;;6.25;5.95;;;;;;;10.70;70.60;101458.13;5032124;28;20064;-61
2022/05/20 00:52:19;;;;;;;6.05;5.80;;;;;;;10.63;70.78;101464.19;5031771;28;20037;-62
2022/05/20 00:54:48;;;;;;;5.85;5.65;;;;;;;10.64;70.76;101460.53;5030304;28;20021;-61
2022/05/20 00:57:21;;;;;;;5.82;5.60;;;;;;;10.61;70.45;101469.66;5032620;28;20032;-62
2022/05/20 00:59:53;;;;;;;5.90;5.70;;;;;;;10.52;70.73;101471.41;5025506;28;20068;-62
2022/05/20 01:02:22;;;;;;;6.30;6.00;;;;;;;10.45;71.56;101462.38;5038704;28;20021;-61
2022/05/20 01:04:49;;;;;;;5.90;5.70;;;;;;;10.46;71.31;101460.56;5036885;28;20021;-62
2022/05/20 01:07:18;;;;;;;6.05;5.85;;;;;;;10.46;72.06;101469.34;5038633;28;20056;-61
2022/05/20 01:09:44;;;;;;;6.20;5.90;;;;;;;10.47;71.36;101467.53;5038684;28;20085;-61
2022/05/20 01:12:10;;;;;;;5.88;5.68;;;;;;;10.47;71.28;101457.75;5038013;28;20025;-61
2022/05/20 01:14:36;;;;;;;5.80;5.60;;;;;;;10.46;70.01;101463.22;5038246;28;20112;-62
2022/05/20 01:17:01;;;;;;;6.28;5.97;;;;;;;10.44;71.93;101463.38;5038116;28;20025;-62
2022/05/20 01:19:45;;;;;;;5.75;5.55;;;;;;;10.52;70.83;101466.09;5037727;28;20025;-62
2022/05/20 01:22:13;;;;;;;6.05;5.80;;;;;;;10.41;70.31;101460.16;5037885;28;20037;-61
2022/05/20 01:24:38;;;;;;;5.90;5.70;;;;;;;10.33;70.66;101462.75;5038006;28;20025;-62
2022/05/20 01:27:04;;;;;;;5.80;5.60;;;;;;;10.20;72.05;101468.38;5038288;28;20026;-62
2022/05/20 01:29:31;;;;;;;5.88;5.68;;;;;;;10.26;71.93;101464.31;5038166;28;20070;-62
2022/05/20 01:31:56;;;;;;;6.13;5.85;;;;;;;10.10;71.33;101438.44;5038128;28;20033;-63
2022/05/20 01:34:22;;;;;;;5.80;5.60;;;;;;;10.17;71.91;101460.72;5037874;28;20029;-61
2022/05/20 01:36:47;;;;;;;6.00;5.80;;;;;;;10.12;72.40;101460.31;5037886;28;20033;-61
2022/05/20 01:39:13;;;;;;;5.93;5.72;;;;;;;10.05;73.11;101467.19;5038260;28;20087;-62
2022/05/20 01:41:59;;;;;;;6.15;5.90;;;;;;;9.96;73.74;101458.31;5032860;28;20055;-62
2022/05/20 01:44:37;;;;;;;5.90;5.70;;;;;;;9.89;74.84;101465.19;5036096;28;20046;-61
2022/05/20 01:47:28;;;;;;;6.20;5.90;;;;;;;9.77;75.29;101453.13;5038383;28;20392;-62
2022/05/20 01:50:00;;;;;;;5.93;5.72;;;;;;;9.63;76.18;101439.41;5037889;28;20075;-61
2022/05/20 01:52:39;;;;;;;5.82;5.63;;;;;;;9.57;75.68;101441.78;5038141;28;20485;-61
2022/05/20 01:55:14;;;;;;;6.07;5.88;;;;;;;9.60;76.34;101455.56;5037611;28;20069;-61
2022/05/20 01:58:00;;;;;;;6.05;5.80;;;;;;;9.57;76.32;101447.09;5038446;28;20021;-61
2022/05/20 02:00:32;;;;;;;5.93;5.72;;;;;;;9.42;77.28;101446.72;5037960;28;20029;-61
2022/05/20 02:03:52;;;;;;;6.00;5.80;;;;;;;9.42;76.40;101462.59;5031522;28;20049;-61
2022/05/20 02:06:24;;;;;;;5.85;5.65;;;;;;;9.40;76.48;101448.66;4996118;28;20031;-62
2022/05/20 02:08:56;;;;;;;5.97;5.78;;;;;;;9.32;77.35;101449.38;5035283;28;20041;-61
2022/05/20 02:11:26;;;;;;;5.78;5.57;;;;;;;9.27;77.75;101456.09;5033565;28;20036;-62
2022/05/20 02:14:01;;;;;;;5.80;5.60;;;;;;;9.28;78.11;101453.31;5025474;28;20033;-61
2022/05/20 02:16:36;;;;;;;6.32;6.03;;;;;;;9.20;78.34;101436.47;5034722;28;20445;-62
2022/05/20 02:19:25;;;;;;;6.70;6.40;;;;;;;9.37;79.01;101455.09;5021947;28;20029;-61
2022/05/20 02:21:55;;;;;;;6.00;5.80;;;;;;;9.32;79.01;101451.19;5029377;28;20022;-61
2022/05/20 02:24:25;;;;;;;6.00;5.80;;;;;;;9.35;79.34;101448.28;5034627;28;20017;-61
2022/05/20 02:26:55;;;;;;;5.80;5.60;;;;;;;9.44;78.38;101451.88;5034344;28;20053;-61
2022/05/20 02:29:34;;;;;;;6.20;5.90;;;;;;;9.40;78.42;101451.31;5033678;28;20033;-62
2022/05/20 02:32:14;;;;;;;5.78;5.57;;;;;;;9.37;79.50;101459.56;5034328;28;20108;-61
2022/05/20 02:34:40;;;;;;;5.90;5.70;;;;;;;9.28;79.25;101455.94;5033902;28;20028;-61
2022/05/20 02:37:20;;;;;;;5.80;5.60;;;;;;;9.40;78.80;101465.41;5032778;28;20144;-62
2022/05/20 02:39:46;;;;;;;5.80;5.60;;;;;;;9.62;77.08;101455.41;5034019;28;20057;-61
2022/05/20 02:42:12;;;;;;;5.70;5.50;;;;;;;9.95;76.03;101464.63;5034363;28;20041;-61
2022/05/20 02:44:37;;;;;;;5.82;5.63;;;;;;;10.26;74.82;101470.47;5033774;28;20408;-62
2022/05/20 02:47:03;;;;;;;5.72;5.53;;;;;;;10.50;72.81;101469.88;5033907;28;20092;-62
2022/05/20 02:49:29;;;;;;;5.57;5.38;;;;;;;10.85;71.21;101460.22;5032598;28;20029;-62
2022/05/20 02:51:55;;;;;;;5.65;5.45;;;;;;;11.05;70.19;101464.38;5022932;28;20034;-62
2022/05/20 02:54:20;;;;;;;6.05;5.85;;;;;;;10.77;71.51;101466.31;5031513;28;20029;-62
2022/05/20 02:56:45;;;;;;;5.70;5.50;;;;;;;10.60;71.81;101464.50;5033817;28;20496;-61
2022/05/20 03:04:40;;;;;;;5.80;5.60;;;;;;;10.75;70.98;101465.63;5023067;28;20036;-62
2022/05/20 03:07:06;;;;;;;6.53;6.22;;;;;;;10.83;70.38;101464.88;5033544;28;20046;-62
2022/05/20 03:09:32;;;;;;;5.90;5.70;;;;;;;11.23;69.70;101465.16;5025191;28;20394;-62
2022/05/20 03:11:57;;;;;;;6.30;6.00;;;;;;;11.47;68.23;101461.84;5027966;28;20039;-62
2022/05/20 03:14:24;;;;;;;5.90;5.70;;;;;;;12.52;64.27;101467.72;5033425;28;20542;-62
2022/05/20 03:16:50;;;;;;;6.40;6.10;;;;;;;14.59;56.81;101475.69;5033317;28;20025;-62
2022/05/20 03:19:17;;;;;;;6.00;5.80;;;;;;;15.28;53.84;101478.31;5033485;28;20371;-61
2022/05/20 03:21:43;;;;;;;6.55;6.25;;;;;;;16.08;51.64;101488.25;5033157;28;20029;-63
2022/05/20 03:24:10;;;;;;;6.57;6.28;;;;;;;17.09;48.40;101488.09;5033179;28;20017;-63
2022/05/20 03:26:36;;;;;;;6.57;6.28;;;;;;;18.40;44.83;101480.97;5033119;28;20036;-63
2022/05/20 03:29:04;;;;;;;6.40;6.10;;;;;;;19.36;42.84;101488.72;5033578;28;20444;-62
2022/05/20 03:31:33;;;;;;;6.47;6.18;;;;;;;20.01;40.09;101488.78;5019534;28;20123;-62
2022/05/20 03:34:05;;;;;;;6.68;6.38;;;;;;;20.58;39.23;101487.91;5033105;28;20045;-63
2022/05/20 03:36:30;;;;;;;6.60;6.30;;;;;;;21.59;36.60;101492.22;5033269;28;20026;-62
2022/05/20 03:38:56;;;;;;;6.47;6.18;;;;;;;21.99;35.58;101479.09;5033000;28;20404;-62
2022/05/20 03:41:21;;;;;;;6.57;6.28;;;;;;;22.34;35.11;101484.72;5028758;28;20444;-63
2022/05/20 03:43:47;;;;;;;6.75;6.45;;;;;;;23.63;32.79;101482.19;5032423;28;20520;-62
2022/05/20 03:46:12;;;;;;;6.68;6.38;;;;;;;23.69;31.99;101491.25;5032845;28;20026;-61
2022/05/20 03:48:38;;;;;;;6.70;6.40;;;;;;;24.66;30.98;101501.31;5032756;28;20052;-61
2022/05/20 03:51:12;;;;;;;6.85;6.55;;;;;;;24.06;31.07;101491.75;5031584;28;20017;-62
2022/05/20 03:53:38;;;;;;;6.70;6.40;;;;;;;25.30;29.45;101504.56;5032332;28;20021;-62
2022/05/20 03:56:04;;;;;;;6.90;6.60;;;;;;;26.00;28.06;101505.78;5032589;28;20017;-62
2022/05/20 03:58:30;;;;;;;7.15;6.85;;;;;;;25.55;28.90;101513.06;5032264;28;20056;-61
2022/05/20 04:03:44;;;;;;;;;;;;;;;25.99;27.45;101504.16;5032446;28;20027;-63
2022/05/20 04:06:10;;;;;;;7.00;6.70;;;;;;;26.17;27.70;101510.09;5032428;28;19991;-62
2022/05/20 04:08:35;;;;;;;6.70;6.40;;;;;;;26.53;26.88;101498.81;5032453;28;20473;-61
2022/05/20 04:11:01;;;;;;;6.78;6.47;;;;;;;27.20;25.87;101498.28;5032079;28;20033;-62
2022/05/20 04:13:26;;;;;;;7.15;6.85;;;;;;;26.92;25.82;101500.22;5032082;28;20431;-62
2022/05/20 04:15:54;;;;;;;6.88;6.57;;;;;;;26.90;26.33;101499.69;5032752;28;20018;-61
2022/05/20 04:18:20;;;;;;;6.80;6.50;;;;;;;26.98;25.64;101499.19;5032308;28;20384;-62
2022/05/20 04:20:46;;;;;;;6.90;6.60;;;;;;;27.19;25.46;101502.09;5039147;28;20830;-62
2022/05/20 04:23:11;;;;;;;6.85;6.55;;;;;;;26.92;25.61;101508.41;5032276;28;20116;-62
2022/05/20 04:25:37;;;;;;;6.95;6.65;;;;;;;26.46;26.07;101495.47;5031017;28;20022;-62
2022/05/20 04:28:03;;;;;;;7.13;6.82;;;;;;;26.36;25.71;101490.69;5031853;28;20112;-62
2022/05/20 04:30:28;;;;;;;6.95;6.65;;;;;;;26.72;25.77;101492.69;5032118;28;20028;-63
2022/05/20 04:32:53;;;;;;;7.00;6.70;;;;;;;26.77;25.89;101491.94;5029281;28;20025;-63
2022/05/20 04:35:19;;;;;;;6.93;6.63;;;;;;;27.14;24.83;101497.44;5030916;28;20030;-62
2022/05/20 04:37:44;;;;;;;7.07;6.78;;;;;;;26.84;25.60;101498.00;5031864;28;20075;-62
2022/05/20 04:40:11;;;;;;;7.30;7.00;;;;;;;27.29;24.84;101494.00;5032146;28;20085;-62
2022/05/20 04:48:06;;;;;;;7.20;6.90;;;;;;;28.33;23.75;101493.13;5031825;28;20106;-62
2022/05/20 04:50:32;;;;;;;6.82;6.53;;;;;;;28.03;24.00;101493.84;5031955;28;20072;-61
2022/05/20 04:52:57;;;;;;;7.20;6.90;;;;;;;28.88;22.87;101486.06;5030806;28;20499;-63
2022/05/20 04:55:24;;;;;;;6.97;6.68;;;;;;;27.04;24.23;101489.19;5031717;28;20025;-62
2022/05/20 04:57:51;;;;;;;7.00;6.70;;;;;;;27.33;24.67;101491.56;5026277;28;20025;-62
2022/05/20 05:00:23;;;;;;;6.85;6.55;;;;;;;25.98;26.35;101483.47;5018443;28;20026;-62
2022/05/20 05:02:50;;;;;;;7.00;6.70;;;;;;;25.48;26.92;101493.41;5039159;28;20059;-61
2022/05/20 05:05:20;;;;;;;6.80;6.50;;;;;;;26.60;25.81;101488.53;5031583;28;20025;-63
2022/05/20 05:07:49;;;;;;;6.85;6.55;;;;;;;27.45;24.66;101493.00;5031400;28;20036;-61
2022/05/20 05:10:17;;;;;;;7.05;6.75;;;;;;;27.91;24.43;101489.69;5031328;28;20528;-62
2022/05/20 05:12:43;;;;;;;7.30;7.00;;;;;;;28.04;23.56;101490.00;5031680;28;20452;-61
2022/05/20 05:15:10;;;;;;;7.07;6.78;;;;;;;28.05;24.04;101491.66;5031435;28;20061;-62
2022/05/20 05:20:23;;;;;;;7.20;6.90;;;;;;;29.43;22.47;101489.00;5031570;28;20044;-62
2022/05/20 05:22:53;;;;;;;7.22;6.93;;;;;;;29.67;22.20;101495.56;5031626;28;20392;-62
2022/05/20 05:25:24;;;;;;;7.30;7.00;;;;;;;30.25;21.90;101495.00;5030719;28;20095;-62
2022/05/20 05:27:50;;;;;;;7.10;6.80;;;;;;;30.92;21.15;101490.72;5022229;28;20085;-62
2022/05/20 05:30:17;;;;;;;7.30;7.00;;;;;;;31.03;21.07;101502.41;5031041;28;20052;-62
2022/05/20 05:32:42;;;;;;;7.32;7.03;;;;;;;31.08;20.41;101497.69;5031493;28;20099;-63
2022/05/20 05:35:12;;;;;;;7.45;7.15;;;;;;;31.26;20.46;101498.09;5031086;28;20469;-64
2022/05/20 05:37:39;;;;;;;7.22;6.93;;;;;;;31.40;20.35;101500.97;5031530;28;20032;-63
2022/05/20 05:40:06;;;;;;;7.30;7.00;;;;;;;32.90;19.43;101497.53;5018718;28;20021;-63
2022/05/20 05:42:32;;;;;;;7.40;7.10;;;;;;;33.19;18.46;101497.28;5030747;28;20035;-63
2022/05/20 05:44:58;;;;;;;7.40;7.10;;;;;;;33.47;18.30;101500.91;5041898;28;20471;-63
2022/05/20 05:47:24;;;;;;;7.40;7.10;;;;;;;33.72;17.61;101503.19;5034877;28;20029;-63
2022/05/20 05:49:49;;;;;;;7.30;7.00;;;;;;;33.07;18.57;101494.25;5035215;28;20108;-63
2022/05/20 05:52:15;;;;;;;7.10;6.80;;;;;;;34.03;17.62;101506.09;5032776;28;20517;-62
2022/05/20 05:54:40;;;;;;;7.15;6.85;;;;;;;34.80;16.83;101504.31;5034648;28;20048;-62
2022/05/20 05:57:06;;;;;;;7.30;7.00;;;;;;;34.29;17.24;101508.28;5034842;28;20028;-63
2022/05/20 05:59:32;;;;;;;7.00;6.70;;;;;;;33.87;17.67;101506.72;5034809;28;20029;-62
2022/05/20 06:01:59;;;;;;;7.00;6.70;;;;;;;33.78;17.20;101504.66;5034631;28;20029;-62
2022/05/20 06:04:25;;;;;;;7.30;7.00;;;;;;;34.08;17.55;101510.66;5034368;28;20032;-64
2022/05/20 06:06:50;;;;;;;7.30;7.00;;;;;;;33.81;17.54;101490.31;5034374;28;20030;-62
2022/05/20 06:09:15;;;;;;;7.05;6.75;;;;;;;33.60;17.74;101497.38;5034056;28;20029;-63
2022/05/20 06:11:41;;;;;;;7.10;6.80;;;;;;;34.48;17.48;101502.63;5034768;28;20492;-63
2022/05/20 06:14:07;;;;;;;6.97;6.68;;;;;;;33.59;18.20;101492.97;5034427;28;20373;-62
2022/05/20 06:16:32;;;;;;;7.20;6.90;;;;;;;34.90;17.51;101487.53;5034351;28;20033;-62
2022/05/20 06:18:58;;;;;;;7.10;6.80;;;;;;;33.80;17.81;101496.94;5034574;28;20060;-63
2022/05/20 06:21:24;;;;;;;7.45;7.15;;;;;;;35.12;17.30;101481.19;5034566;28;20045;-63
2022/05/20 06:23:49;;;;;;;7.20;6.90;;;;;;;33.55;18.81;101483.69;5034097;28;20534;-63
2022/05/20 06:26:14;;;;;;;7.10;6.80;;;;;;;34.54;17.61;101482.09;5034556;28;20021;-63
2022/05/20 06:28:40;;;;;;;7.30;7.00;;;;;;;33.70;18.72;101485.31;5034674;28;20029;-63
2022/05/20 06:31:06;;;;;;;7.18;6.88;;;;;;;34.44;17.65;101490.59;5034062;28;20021;-63
2022/05/20 06:33:32;;;;;;;6.88;6.57;;;;;;;34.70;17.87;101477.81;5034404;28;20396;-62
2022/05/20 06:41:25;;;;;;;7.10;6.80;;;;;;;33.75;18.32;101466.75;5034318;28;20032;-64
2022/05/20 06:43:51;;;;;;;7.13;6.82;;;;;;;33.90;18.14;101468.41;5033503;28;20049;-63
2022/05/20 06:46:16;;;;;;;6.82;6.53;;;;;;;34.98;17.05;101459.22;5033931;28;20029;-63
2022/05/20 06:48:49;;;;;;;7.03;6.72;;;;;;;35.04;17.21;101466.22;5033769;28;20049;-63
2022/05/20 06:51:21;;;;;;;7.20;6.90;;;;;;;35.92;16.70;101466.22;5033518;28;20108;-63
2022/05/20 06:53:47;;;;;;;7.22;6.93;;;;;;;35.88;15.98;101459.66;5033603;28;20040;-63
2022/05/20 06:56:14;;;;;;;7.13;6.82;;;;;;;35.78;16.49;101453.66;5044084;28;20025;-64
2022/05/20 06:58:40;;;;;;;7.10;6.80;;;;;;;36.08;16.21;101460.22;5033655;28;20025;-63
2022/05/20 07:01:05;;;;;;;7.10;6.80;;;;;;;36.03;16.00;101460.38;5033659;28;20022;-63
2022/05/20 07:03:32;;;;;;;7.20;6.90;;;;;;;34.80;17.08;101461.03;5033607;28;20140;-63
2022/05/20 07:05:57;;;;;;;7.03;6.72;;;;;;;35.28;16.62;101459.50;5033777;28;20049;-63
2022/05/20 07:08:24;;;;;;;7.13;6.82;;;;;;;34.97;16.64;101454.03;5033329;28;20056;-64
2022/05/20 07:10:49;;;;;;;6.97;6.68;;;;;;;35.91;16.07;101453.53;5033272;28;20116;-62
2022/05/20 07:13:15;;;;;;;7.30;7.00;;;;;;;36.40;15.52;101456.97;5033031;28;20108;-62
2022/05/20 07:15:40;;;;;;;7.22;6.93;;;;;;;35.29;16.23;101456.41;5033164;28;20021;-63
2022/05/20 07:18:07;;;;;;;6.97;6.68;;;;;;;35.80;15.87;101454.16;5032825;28;20045;-63
2022/05/20 07:20:32;;;;;;;7.15;6.85;;;;;;;34.15;17.20;101453.22;5033155;28;20087;-63
2022/05/20 07:22:57;;;;;;;7.10;6.80;;;;;;;34.36;16.84;101453.56;5032900;28;20025;-62
2022/05/20 07:25:23;;;;;;;7.10;6.80;;;;;;;33.57;17.87;101447.63;5032820;28;20111;-63
2022/05/20 07:27:48;;;;;;;7.00;6.70;;;;;;;34.30;16.58;101452.91;5032865;28;20158;-63
2022/05/20 07:30:15;;;;;;;6.70;6.40;;;;;;;34.31;16.72;101449.00;5033138;28;20446;-63
2022/05/20 07:32:42;;;;;;;7.22;6.93;;;;;;;33.77;17.20;101447.19;5033582;28;20021;-63
2022/05/20 07:35:09;;;;;;;6.85;6.55;;;;;;;34.32;16.41;101438.81;5026014;28;20374;-63
2022/05/20 07:37:35;;;;;;;6.90;6.60;;;;;;;33.15;17.54;101433.03;5032767;28;20026;-63
2022/05/20 07:40:02;;;;;;;7.20;6.90;;;;;;;33.43;17.95;101431.16;5032634;28;20025;-63
2022/05/20 07:42:27;;;;;;;7.13;6.82;;;;;;;31.78;18.65;101438.81;5033008;28;20044;-62
2022/05/20 07:44:53;;;;;;;7.07;6.78;;;;;;;33.57;17.08;101442.97;5019057;28;20497;-63
2022/05/20 07:47:20;;;;;;;7.07;6.78;;;;;;;32.24;18.44;101441.69;5032319;28;20064;-62
2022/05/20 07:49:45;;;;;;;6.95;6.65;;;;;;;31.63;18.36;101439.78;5032604;28;20495;-63
2022/05/20 07:52:13;;;;;;;7.00;6.70;;;;;;;33.58;17.19;101435.50;5032452;28;20025;-62
2022/05/20 07:54:43;;;;;;;7.00;6.70;;;;;;;31.94;18.61;101422.94;5032645;28;20021;-62
2022/05/20 07:57:13;;;;;;;7.00;6.70;;;;;;;31.13;19.22;101424.72;5032444;28;20017;-63
2022/05/20 07:59:51;;;;;;;7.05;6.75;;;;;;;32.06;18.63;101420.56;5032536;28;20104;-64
2022/05/20 08:02:21;;;;;;;6.65;6.35;;;;;;;31.20;18.98;101425.19;5032624;28;20025;-62
2022/05/20 08:05:00;;;;;;;6.65;6.35;;;;;;;30.53;19.57;101419.50;5032434;28;20108;-63
2022/05/20 08:07:37;;;;;;;6.60;6.30;;;;;;;28.73;21.21;101415.09;5021873;28;20038;-63
2022/05/20 08:10:07;;;;;;;6.97;6.68;;;;;;;31.10;19.08;101423.38;5030208;28;20112;-63
2022/05/20 08:12:32;;;;;;;7.07;6.78;;;;;;;29.51;20.74;101419.31;5031919;28;20025;-63
2022/05/20 08:14:58;;;;;;;6.90;6.60;;;;;;;29.58;20.27;101417.91;5032313;28;20477;-63
2022/05/20 08:17:25;;;;;;;6.60;6.30;;;;;;;30.69;18.96;101410.09;5032105;28;20029;-64
2022/05/20 08:19:52;;;;;;;6.85;6.55;;;;;;;29.62;19.87;101409.97;5032200;28;20071;-62
2022/05/20 08:22:22;;;;;;;6.82;6.53;;;;;;;30.07;19.33;101405.34;5032308;28;20021;-62
2022/05/20 08:24:54;;;;;;;6.90;6.60;;;;;;;29.62;19.82;101401.78;5032236;28;20025;-63
2022/05/20 08:27:21;;;;;;;6.57;6.28;;;;;;;29.57;19.99;101394.41;5031729;28;20022;-63
2022/05/20 08:29:48;;;;;;;6.57;6.28;;;;;;;29.72;20.42;101393.50;5031863;28;20037;-63
2022/05/20 08:32:15;;;;;;;7.00;6.70;;;;;;;29.41;20.40;101379.13;5027042;28;20084;-63
2022/05/20 08:34:41;;;;;;;6.88;6.57;;;;;;;30.08;19.56;101382.34;5026412;28;20075;-63
2022/05/20 08:37:06;;;;;;;7.00;6.70;;;;;;;29.63;20.01;101384.25;5026726;28;20108;-62
2022/05/20 08:39:32;;;;;;;7.00;6.70;;;;;;;28.51;20.93;101377.16;5031746;28;20032;-63
2022/05/20 08:41:57;;;;;;;6.70;6.40;;;;;;;28.69;20.27;101383.13;5031585;28;20405;-63
2022/05/20 08:44:24;;;;;;;7.00;6.70;;;;;;;28.14;21.64;101371.94;5031681;28;20080;-63
2022/05/20 08:46:51;;;;;;;6.82;6.53;;;;;;;28.28;21.29;101374.94;5032028;28;20028;-63
2022/05/20 08:49:24;;;;;;;6.65;6.35;;;;;;;28.99;20.08;101369.44;5028446;28;20057;-63
2022/05/20 08:51:52;;;;;;;6.80;6.50;;;;;;;29.87;17.98;101365.25;5031796;28;20036;-62
2022/05/20 08:54:18;;;;;;;6.88;6.57;;;;;;;29.30;19.48;101363.88;5031790;28;20132;-63
2022/05/20 08:56:44;;;;;;;6.60;6.30;;;;;;;30.15;18.86;101359.06;5018549;28;20072;-64
2022/05/20 08:59:17;;;;;;;6.68;6.38;;;;;;;28.20;20.85;101354.44;5024927;28;20033;-63
2022/05/20 09:01:50;;;;;;;6.60;6.30;;;;;;;28.85;20.14;101360.16;5031541;28;20029;-63
2022/05/20 09:04:19;;;;;;;6.60;6.30;;;;;;;29.55;19.58;101357.50;5031721;28;20447;-63
2022/05/20 09:07:01;;;;;;;6.82;6.53;;;;;;;28.47;19.85;101348.75;5032007;28;20029;-62
2022/05/20 09:09:40;;;;;;;6.70;6.40;;;;;;;28.54;18.94;101349.28;5031470;28;20074;-63
2022/05/20 09:12:07;;;;;;;6.72;6.43;;;;;;;29.00;18.54;101348.41;5031285;28;20060;-64
2022/05/20 09:17:21;;;;;;;6.90;6.60;;;;;;;29.56;18.30;101338.09;5031481;28;20039;-63
2022/05/20 09:20:07;;;;;;;6.65;6.35;;;;;;;28.84;19.03;101329.31;5033669;28;20036;-63
2022/05/20 09:22:37;;;;;;;6.70;6.40;;;;;;;29.80;18.56;101329.19;5035345;28;20545;-64
2022/05/20 09:25:28;;;;;;;6.85;6.55;;;;;;;28.90;19.88;101327.38;5035506;28;20040;-63
2022/05/20 09:28:27;;;;;;;6.68;6.38;;;;;;;28.92;19.62;101327.13;5022033;28;20108;-63
2022/05/20 09:31:01;;;;;;;6.65;6.35;;;;;;;29.51;19.33;101321.69;5022915;28;20505;-63
2022/05/20 09:33:31;;;;;;;6.70;6.40;;;;;;;29.58;19.42;101324.94;5027505;28;20045;-62
2022/05/20 09:36:01;;;;;;;6.60;6.30;;;;;;;29.16;20.23;101318.03;5035024;28;20033;-63
2022/05/20 09:38:39;;;;;;;6.88;6.57;;;;;;;29.12;19.23;101299.75;5029228;28;20033;-62
2022/05/20 09:41:20;;;;;;;6.55;6.25;;;;;;;28.18;19.35;101296.63;5027754;28;20029;-62
2022/05/20 09:43:58;;;;;;;6.65;6.35;;;;;;;28.09;19.91;101295.53;5022787;28;20127;-63
2022/05/20 09:46:29;;;;;;;6.72;6.43;;;;;;;27.98;20.08;101291.16;5034955;28;20026;-63
2022/05/20 09:49:13;;;;;;;6.68;6.38;;;;;;;28.18;19.70;101291.16;5034632;28;20093;-62
2022/05/20 09:51:45;;;;;;;6.70;6.40;;;;;;;28.48;19.52;101286.78;5034384;28;20044;-63
2022/05/20 09:54:20;;;;;;;6.80;6.50;;;;;;;28.71;19.33;101288.91;5031582;28;20175;-62
2022/05/20 09:57:04;;;;;;;6.45;6.15;;;;;;;28.09;20.35;101270.97;5015159;28;20022;-63
2022/05/20 09:59:34;;;;;;;;;;;;;;;28.01;20.82;101272.34;5020980;28;20033;-62
2022/05/20 10:02:20;;;;;;;6.68;6.38;;;;;;;27.97;20.21;101276.69;5021267;28;20303;-64
2022/05/20 10:05:13;;;;;;;6.50;6.20;;;;;;;27.99;20.74;101268.28;5034589;28;20022;-63
2022/05/20 10:07:47;;;;;;;6.55;6.25;;;;;;;28.53;20.05;101260.31;5034671;28;20431;-63
2022/05/20 10:10:24;;;;;;;6.40;6.10;;;;;;;27.54;21.57;101257.03;5034569;28;20049;-63
2022/05/20 10:12:52;;;;;;;6.70;6.40;;;;;;;28.18;20.61;101258.41;5026992;28;20024;-62
2022/05/20 10:15:33;;;;;;;6.80;6.50;;;;;;;27.87;20.95;101251.34;5034511;28;20048;-63
2022/05/20 10:18:13;;;;;;;6.70;6.40;;;;;;;27.35;21.98;101245.00;5034143;28;20026;-62
2022/05/20 10:21:23;;;;;;;6.70;6.40;;;;;;;27.84;21.11;101251.88;5033599;28;20021;-63
2022/05/20 10:24:09;;;;;;;6.38;6.07;;;;;;;28.06;20.71;101247.81;5021677;28;20107;-63
2022/05/20 10:26:53;;;;;;;6.50;6.20;;;;;;;28.76;20.13;101228.84;5025315;28;20187;-62
2022/05/20 10:32:34;;;;;;;6.80;6.50;;;;;;;28.39;20.48;101239.31;5020075;28;20170;-63
2022/05/20 10:35:03;;;;;;;6.78;6.47;;;;;;;27.99;21.59;101232.81;5033312;28;20026;-63
2022/05/20 10:37:53;;;;;;;6.70;6.40;;;;;;;28.55;21.75;101232.72;5033644;28;20053;-65
2022/05/20 10:40:39;;;;;;;6.45;6.15;;;;;;;27.65;23.49;101214.22;5033908;28;20018;-63
2022/05/20 10:43:14;;;;;;;6.13;5.93;;;;;;;27.80;21.65;101219.72;5031355;28;20509;-63
2022/05/20 10:48:47;;;;;;;6.47;6.18;;;;;;;28.18;21.61;101216.69;5029728;28;20116;-62
2022/05/20 10:51:37;;;;;;;6.60;6.30;;;;;;;27.92;22.31;101216.72;5027275;28;20025;-63
2022/05/20 10:54:11;;;;;;;6.63;6.32;;;;;;;27.84;22.90;101205.53;5033514;28;20038;-63
2022/05/20 10:56:52;;;;;;;6.50;6.20;;;;;;;27.88;22.16;101198.44;5020458;28;20551;-63
2022/05/20 10:59:44;;;;;;;6.25;6.00;;;;;;;27.00;22.54;101186.56;5024612;28;20060;-63
2022/05/20 11:02:16;;;;;;;6.55;6.25;;;;;;;27.20;21.97;101185.84;5020919;28;20477;-65
2022/05/20 11:04:58;;;;;;;6.60;6.30;;;;;;;27.80;22.12;101192.44;5032212;28;20389;-63
2022/05/20 11:07:41;;;;;;;6.60;6.30;;;;;;;28.04;22.10;101194.59;5033793;28;20033;-63
2022/05/20 11:10:10;;;;;;;6.50;6.20;;;;;;;27.63;22.81;101191.88;5033379;28;20098;-62
2022/05/20 11:12:54;;;;;;;6.57;6.28;;;;;;;28.15;22.57;101179.88;5033096;28;20508;-63
2022/05/20 11:15:57;;;;;;;6.50;6.20;;;;;;;27.48;22.36;101175.53;5032995;28;20065;-62
2022/05/20 11:18:39;;;;;;;6.40;6.10;;;;;;;28.31;21.58;101169.75;5033180;28;20041;-63
2022/05/20 11:21:53;;;;;;;6.50;6.20;;;;;;;28.93;20.56;101170.34;5033362;28;20033;-63
2022/05/20 11:24:28;;;;;;;7.00;6.70;;;;;;;27.76;21.78;101174.19;5010682;28;20021;-62
2022/05/20 11:27:12;;;;;;;6.10;5.90;;;;;;;28.07;21.86;101174.97;5029678;28;20034;-63
2022/05/20 11:30:10;;;;;;;6.18;5.97;;;;;;;28.49;21.11;101166.41;5032959;28;20056;-62
2022/05/20 11:33:10;;;;;;;6.40;6.10;;;;;;;27.89;23.24;101170.91;5031647;28;20061;-63
2022/05/20 11:35:41;;;;;;;6.60;6.30;;;;;;;27.94;22.49;101173.63;5032626;28;20041;-63
2022/05/20 11:38:28;;;;;;;6.72;6.43;;;;;;;27.61;21.92;101166.78;5032578;28;20032;-62
2022/05/20 11:41:40;;;;;;;6.50;6.20;;;;;;;28.01;21.65;101157.81;5022349;28;20119;-64
2022/05/20 11:44:42;;;;;;;6.63;6.32;;;;;;;28.21;21.55;101159.66;5031814;28;20061;-63
2022/05/20 11:47:20;;;;;;;6.60;6.30;;;;;;;28.62;21.32;101135.78;5025070;28;20100;-63
2022/05/20 11:50:12;;;;;;;6.80;6.50;;;;;;;28.58;21.17;101134.72;5032275;28;20041;-63
2022/05/20 11:52:46;;;;;;;6.57;6.28;;;;;;;28.01;22.03;101129.72;5032262;28;20021;-62
2022/05/20 11:55:20;;;;;;;6.72;6.43;;;;;;;28.00;22.44;101122.63;5032699;28;20025;-63
2022/05/20 11:58:02;;;;;;;6.60;6.30;;;;;;;27.86;21.96;101122.38;5032599;28;20087;-63
2022/05/20 12:00:31;;;;;;;6.60;6.30;;;;;;;27.76;22.47;101109.59;5020314;28;20378;-63
2022/05/20 12:03:07;;;;;;;6.78;6.47;;;;;;;27.85;22.34;101109.84;5026987;28;20095;-64
2022/05/20 12:05:39;;;;;;;6.63;6.32;;;;;;;27.81;21.99;101106.03;5032330;28;20385;-63
2022/05/20 12:08:04;;;;;;;6.60;6.30;;;;;;;27.87;22.24;101104.09;5032390;28;20048;-63
2022/05/20 12:10:30;;;;;;;6.80;6.50;;;;;;;28.49;21.95;101105.53;5032393;28;20021;-63
2022/05/20 12:13:08;;;;;;;6.60;6.30;;;;;;;28.31;21.69;101090.63;5032071;28;20068;-63
2022/05/20 12:15:40;;;;;;;6.50;6.20;;;;;;;28.52;21.06;101085.91;5032483;28;20036;-63
2022/05/20 12:24:11;;;;;;;6.55;6.25;;;;;;;28.23;21.42;101074.81;5032160;28;20034;-63